Airfield :
LOGIN :

Register | Disclaimer

   EN    FR    IT 

 










Legend :    VFR   Marginal VFR   IFR   Intensive IFR   Very Intensive IFR
Visi :
Ceiling :
>= 8 km
>= 3000ft
5 to 8 km
1000 to 3000 ft
1500m to 5 km
500 to 1000 ft
800 to 1500m
200 to 500 ft
< 800m
< 200 ft
Symbols :   Thunderstorms  Fog  Heavy snow  Heavy precipitations  Wind > 20 kt
SIGMETs :     Misc.  Thunderstorms  Icing  Turbulence  Mountain Waves  Volcanic Ashes






- Airport Elevation : 741 ft
- IATA code : PED


LKPD - Pardubice AB

CURRENT METAR :
  • 291100Z 36004KT 300V070 9999 SCT030 SCT210 13/05 Q1004 NOSIG RMK BLU BLU

EXPIRED METARs :
  • 291030Z 34003KT 280V030 9999 SCT028 BKN210 13/06 Q1004 NOSIG RMK BLU BLU
  • 291000Z VRB04KT 9999 BKN026 13/06 Q1004 NOSIG RMK BLU BLU
  • 290930Z VRB01KT 9999 SCT024 BKN210 12/05 Q1004 NOSIG RMK BLU BLU
  • 290900Z VRB02KT 9999 SCT021 BKN210 12/07 Q1003 NOSIG RMK BLU BLU
  • 290830Z 28004KT 250V340 9999 FEW020 SCT140 BKN210 11/06 Q1003 NOSIG RMK BLU BLU

TAF TAF LKPD
Valid from the 29 at 06:00 until the 30 at 06:00 UTC


290500Z 2906/3006 VRB02KT CAVOK
TEMPO 2906/2908 5000 MIFG BR
PROB30 2906/2908 0600 FG BKN002
TEMPO 2913/2918 04008KT
BECMG 3000/3002 BKN030
PROB30
TEMPO 3000/3006 8000 RA BKN020



MET'MAP, your aeronautical weather chart ! - Copyright ORBIFLY December 2007 - Disclaimer

ORBIFLY MET'MAP TEAM :

Programming & Development : Alexandra Zaïnal
Original concept : Baudouin d'Aumeries
Technical & hardware support : Manuel Goepfert
Assistance : Marc-Olivier Méhu




SOURCES & CREDITS :

   NOAA